Green Cape, Australia
Current Conditions -  °F | °C
As of 1:00 PM on Friday 21 Nov 2014 (Local Time) from YMER Reporting Station
Scattered Clouds Scattered Clouds  
Wind Chill: 79°   Ceiling: Unl
Heat Index: 81°   Visibility: 6mi
Dew Point: 64°   Wind: 12mph
Humidity: 61%   Direction: 140°SE
Pressure: 29.71"   Gusts: NA
Location:  37.26°S, 150.05°E
Report Text: YMER 210200Z AUTO 14010KT 9999 // SCT086 26/18 Q1006
Loading
Personal Weather Stations






























Interactive Weather Map New forecast layout! Learn more

10-Day Weather Forecast

Advertisements
Track Severe Weather on mobile